航空気象通報

ウインドサーファーのための航空気象通報による風予報です。

4/22-23の航空気象通報(国内、海外)

2008年04月22日 23時30分10秒 | TAF
羽田空港
TAF RJTT 220840Z 221812 05008KT 9999 FEW015 SCT030
BECMG 0003 14010KT
日本時間23日03-09時:050度から8ノットの風
09-12時:風が変化
12-21時:140度から10ノットの風


那覇空港
TAF ROAH 220843Z 221812 14014KT 9999 FEW020 SCT045
TEMPO 0912 4000 SHRA FEW010 BKN020 FEW025CB
日本時間23日03-21時:140度から14ノットの風
、但し、18-21時:一時、

マウイのカフルイ空港
PHOG 221130Z 221212 11006KT P6SM SKC
FM2000 04014G22KT P6SM SCT060
FM0600 06012KT P6SM FEW040 BKN200
FM0900 11005KT P6SM BKN200
ハワイ時間22日02-10時:110度から6ノットの風
10-20時:040度から14ノット、突風22ノット

20-23時:060度から12ノットの風
23時-23日02時:110度から5ノットの風


サイパン空港
PGSN 221130Z 221212 09008KT P6SM VCSH FEW020 SCT060
FM2300 08013KT P6SM VCSH SCT018 BKN050
マリアナ時間22日22時-23日09時:090度から8ノットの風

09-22時:080度から13ノットの風

コメント
この記事をはてなブックマークに追加